createdAt,value
2017-11-04T00:00:19.603Z,1009.93
2017-11-04T00:01:31.912Z,1009.9
2017-11-04T00:02:44.505Z,1009.88
2017-11-04T00:03:56.794Z,1009.91
2017-11-04T00:05:09.066Z,1009.9
2017-11-04T00:06:21.355Z,1009.87
2017-11-04T00:07:33.959Z,1009.89
2017-11-04T00:08:46.578Z,1009.88
2017-11-04T00:09:59.168Z,1009.9
2017-11-04T00:11:11.117Z,1009.85
2017-11-04T00:12:23.392Z,1009.88
2017-11-04T00:13:35.663Z,1009.87
2017-11-04T00:14:47.605Z,1009.82
2017-11-04T00:16:00.181Z,1009.78
2017-11-04T00:17:12.483Z,1009.82
2017-11-04T00:18:24.769Z,1009.83
2017-11-04T00:19:37.063Z,1009.82
2017-11-04T00:20:49.661Z,1009.81
2017-11-04T00:22:02.294Z,1009.83
2017-11-04T00:23:14.900Z,1009.79
2017-11-04T00:24:27.500Z,1009.78
2017-11-04T00:25:40.119Z,1009.76
2017-11-04T00:26:52.719Z,1009.79
2017-11-04T00:28:04.679Z,1009.75
2017-11-04T00:29:17.274Z,1009.75
2017-11-04T00:30:29.579Z,1009.73
2017-11-04T00:31:42.193Z,1009.74
2017-11-04T00:32:54.462Z,1009.73
2017-11-04T00:34:06.777Z,1009.75
2017-11-04T00:35:19.085Z,1009.75
2017-11-04T00:36:30.727Z,1009.76
2017-11-04T00:37:43.325Z,1009.66
2017-11-04T00:38:55.921Z,1009.69
2017-11-04T00:40:08.520Z,1009.7
2017-11-04T00:41:20.805Z,1009.7
2017-11-04T00:42:33.434Z,1009.71
2017-11-04T00:43:45.728Z,1009.71
2017-11-04T00:44:58.323Z,1009.73
2017-11-04T00:46:10.294Z,1009.7
2017-11-04T00:47:22.277Z,1009.7
2017-11-04T00:48:34.600Z,1009.67
2017-11-04T00:49:47.209Z,1009.68
2017-11-04T00:50:59.822Z,1009.67
2017-11-04T00:52:12.474Z,1009.66
2017-11-04T00:53:24.807Z,1009.67
2017-11-04T00:54:37.114Z,1009.65
2017-11-04T00:55:49.400Z,1009.63
2017-11-04T00:57:01.686Z,1009.61
2017-11-04T00:58:14.233Z,1009.55
2017-11-04T00:59:26.564Z,1009.53
2017-11-04T01:00:38.892Z,1009.55
2017-11-04T01:01:51.165Z,1009.53
2017-11-04T01:03:03.486Z,1009.5
2017-11-04T01:04:15.758Z,1009.54
2017-11-04T01:05:28.371Z,1009.5
2017-11-04T01:06:40.970Z,1009.44
2017-11-04T01:07:53.565Z,1009.5
2017-11-04T01:09:06.208Z,1009.44
2017-11-04T01:10:18.808Z,1009.5
2017-11-04T01:11:31.399Z,1009.45
2017-11-04T01:12:43.995Z,1009.5
2017-11-04T01:13:56.644Z,1009.48
2017-11-04T01:15:08.928Z,1009.48
2017-11-04T01:16:21.525Z,1009.43
2017-11-04T01:17:33.848Z,1009.42
2017-11-04T01:18:46.143Z,1009.41
2017-11-04T01:19:58.745Z,1009.43
2017-11-04T01:21:11.344Z,1009.45
2017-11-04T01:22:23.938Z,1009.42
2017-11-04T01:23:36.229Z,1009.39
2017-11-04T01:24:48.830Z,1009.38
2017-11-04T01:26:01.422Z,1009.35
2017-11-04T01:27:13.696Z,1009.36
2017-11-04T01:28:26.345Z,1009.35
2017-11-04T01:29:38.626Z,1009.35
2017-11-04T01:30:51.208Z,1009.34
2017-11-04T01:32:03.826Z,1009.29
2017-11-04T01:33:16.088Z,1009.28
2017-11-04T01:34:28.047Z,1009.26
2017-11-04T01:35:40.659Z,1009.26
2017-11-04T01:36:53.263Z,1009.23
2017-11-04T01:38:05.878Z,1009.21
2017-11-04T01:39:17.844Z,1009.21
2017-11-04T01:40:29.816Z,1009.23
2017-11-04T01:41:41.768Z,1009.21
2017-11-04T01:42:54.363Z,1009.23
2017-11-04T01:44:06.300Z,1009.22
2017-11-04T01:45:18.923Z,1009.19
2017-11-04T01:46:31.205Z,1009.17
2017-11-04T01:47:43.504Z,1009.19
2017-11-04T01:48:55.782Z,1009.18
2017-11-04T01:50:08.064Z,1009.18
2017-11-04T01:51:20.031Z,1009.15
2017-11-04T01:52:32.618Z,1009.14
2017-11-04T01:53:44.250Z,1009.13
2017-11-04T01:54:56.520Z,1009.12
2017-11-04T01:56:09.192Z,1009.11
2017-11-04T01:57:21.800Z,1009.12
2017-11-04T01:58:34.404Z,1009.09
2017-11-04T01:59:47.001Z,1009.04
2017-11-04T02:00:58.951Z,1009.11
2017-11-04T02:02:11.548Z,1009.09
2017-11-04T02:03:24.165Z,1009.07
2017-11-04T02:04:36.774Z,1009.07
2017-11-04T02:05:49.053Z,1009.05
2017-11-04T02:07:01.670Z,1009.06
2017-11-04T02:08:14.262Z,1009.08
2017-11-04T02:09:26.214Z,1009.07
2017-11-04T02:10:38.842Z,1009.05
2017-11-04T02:11:51.124Z,1009.06
2017-11-04T02:13:03.726Z,1009.04
2017-11-04T02:14:16.023Z,1009.05
2017-11-04T02:15:28.615Z,1009.06
2017-11-04T02:16:40.914Z,1008.98
2017-11-04T02:17:52.863Z,1008.96
2017-11-04T02:19:05.151Z,1009
2017-11-04T02:20:17.755Z,1008.98
2017-11-04T02:21:30.342Z,1008.99
2017-11-04T02:22:42.597Z,1008.96
2017-11-04T02:23:55.206Z,1008.91
2017-11-04T02:25:07.177Z,1008.96
2017-11-04T02:26:19.457Z,1008.92
2017-11-04T02:27:31.421Z,1008.92
2017-11-04T02:28:43.704Z,1008.94
2017-11-04T02:29:55.990Z,1008.88
2017-11-04T02:31:08.263Z,1008.97
2017-11-04T02:32:19.883Z,1008.92
2017-11-04T02:33:31.830Z,1008.93
2017-11-04T02:34:44.099Z,1008.92
2017-11-04T02:35:56.965Z,1008.89
2017-11-04T02:37:09.259Z,1008.9
2017-11-04T02:38:21.541Z,1008.92
2017-11-04T02:39:34.163Z,1008.93
2017-11-04T02:40:46.781Z,1008.85
2017-11-04T02:41:59.098Z,1008.84
2017-11-04T02:43:11.404Z,1008.85
2017-11-04T02:44:24.018Z,1008.85
2017-11-04T02:45:36.281Z,1008.81
2017-11-04T02:46:48.884Z,1008.83
2017-11-04T02:48:01.481Z,1008.8
2017-11-04T02:49:13.777Z,1008.79
2017-11-04T02:50:26.388Z,1008.79
2017-11-04T02:51:38.666Z,1008.81
2017-11-04T02:52:50.965Z,1008.79
2017-11-04T02:54:02.947Z,1008.82
2017-11-04T02:55:15.245Z,1008.83
2017-11-04T02:56:27.544Z,1008.79
2017-11-04T02:57:40.394Z,1008.81
2017-11-04T02:58:52.683Z,1008.82
2017-11-04T03:00:05.303Z,1008.79
2017-11-04T03:01:17.596Z,1008.82
2017-11-04T03:02:30.202Z,1008.76
2017-11-04T03:03:42.825Z,1008.79
2017-11-04T03:04:55.095Z,1008.77
2017-11-04T03:06:07.731Z,1008.76
2017-11-04T03:07:19.703Z,1008.76
2017-11-04T03:08:32.278Z,1008.78
2017-11-04T03:09:44.551Z,1008.76
2017-11-04T03:10:56.844Z,1008.75
2017-11-04T03:12:09.156Z,1008.73
2017-11-04T03:13:21.765Z,1008.71
2017-11-04T03:14:34.400Z,1008.73
2017-11-04T03:15:47.008Z,1008.71
2017-11-04T03:16:59.644Z,1008.71
2017-11-04T03:18:11.609Z,1008.63
2017-11-04T03:19:24.189Z,1008.7
2017-11-04T03:20:36.160Z,1008.73
2017-11-04T03:21:48.472Z,1008.7
2017-11-04T03:23:00.781Z,1008.7
2017-11-04T03:24:12.449Z,1008.72
2017-11-04T03:25:25.044Z,1008.67
2017-11-04T03:26:37.343Z,1008.69
2017-11-04T03:27:49.953Z,1008.67
2017-11-04T03:29:02.577Z,1008.67
2017-11-04T03:30:15.150Z,1008.65
2017-11-04T03:31:27.765Z,1008.67
2017-11-04T03:32:39.757Z,1008.63
2017-11-04T03:33:52.338Z,1008.69
2017-11-04T03:35:04.931Z,1008.63
2017-11-04T03:36:16.557Z,1008.61
2017-11-04T03:37:29.181Z,1008.63
2017-11-04T03:38:41.485Z,1008.56
2017-11-04T03:39:54.045Z,1008.57
2017-11-04T03:41:06.330Z,1008.56
2017-11-04T03:42:18.934Z,1008.58
2017-11-04T03:43:30.922Z,1008.47
2017-11-04T03:44:43.517Z,1008.48
2017-11-04T03:45:56.124Z,1008.5
2017-11-04T03:47:08.738Z,1008.48
2017-11-04T03:48:21.337Z,1008.5
2017-11-04T03:49:33.631Z,1008.47
2017-11-04T03:50:46.228Z,1008.5
2017-11-04T03:51:59.100Z,1008.47
2017-11-04T03:53:11.693Z,1008.45
2017-11-04T03:54:23.961Z,1008.48
2017-11-04T03:55:36.549Z,1008.47
2017-11-04T03:56:49.144Z,1008.43
2017-11-04T03:58:01.745Z,1008.45
2017-11-04T03:59:14.361Z,1008.45
2017-11-04T04:00:26.684Z,1008.46
2017-11-04T04:01:38.977Z,1008.51
2017-11-04T04:02:51.836Z,1008.43
2017-11-04T04:04:04.147Z,1008.47
2017-11-04T04:05:16.428Z,1008.44
2017-11-04T04:06:29.035Z,1008.44
2017-11-04T04:07:41.643Z,1008.42
2017-11-04T04:08:54.259Z,1008.36
2017-11-04T04:10:06.886Z,1008.38
2017-11-04T04:11:19.500Z,1008.4
2017-11-04T04:12:31.789Z,1008.39
2017-11-04T04:13:44.387Z,1008.4
2017-11-04T04:14:56.980Z,1008.33
2017-11-04T04:16:09.286Z,1008.35
2017-11-04T04:17:21.249Z,1008.35
2017-11-04T04:18:33.868Z,1008.31
2017-11-04T04:19:46.502Z,1008.33
2017-11-04T04:20:58.789Z,1008.29
2017-11-04T04:22:11.084Z,1008.25
2017-11-04T04:23:23.684Z,1008.27
2017-11-04T04:24:35.647Z,1008.26
2017-11-04T04:25:47.929Z,1008.31
2017-11-04T04:26:59.886Z,1008.28
2017-11-04T04:28:12.184Z,1008.29
2017-11-04T04:29:24.460Z,1008.27
2017-11-04T04:30:36.729Z,1008.23
2017-11-04T04:31:49.023Z,1008.24
2017-11-04T04:33:01.600Z,1008.22
2017-11-04T04:34:14.196Z,1008.19
2017-11-04T04:35:27.067Z,1008.16
2017-11-04T04:36:39.665Z,1008.2
2017-11-04T04:37:52.282Z,1008.2
2017-11-04T04:39:04.896Z,1008.19
2017-11-04T04:40:17.172Z,1008.22
2017-11-04T04:41:29.464Z,1008.2
2017-11-04T04:42:41.728Z,1008.17
2017-11-04T04:43:54.336Z,1008.17
2017-11-04T04:45:06.656Z,1008.19
2017-11-04T04:46:19.250Z,1008.14
2017-11-04T04:47:31.861Z,1008.14
2017-11-04T04:48:44.456Z,1008.08
2017-11-04T04:49:56.735Z,1008.1
2017-11-04T04:51:09.323Z,1008.1
2017-11-04T04:52:21.929Z,1008.07
2017-11-04T04:53:34.218Z,1008.07
2017-11-04T04:54:46.819Z,1008.04
2017-11-04T04:55:58.771Z,1008.09
2017-11-04T04:57:11.388Z,1008.05
2017-11-04T04:58:23.979Z,1008.07
2017-11-04T04:59:36.549Z,1008.06
2017-11-04T05:00:48.192Z,1008.08
2017-11-04T05:02:00.469Z,1008.05
2017-11-04T05:03:12.742Z,1008.03
2017-11-04T05:04:25.029Z,1008.07
2017-11-04T05:05:37.323Z,1008.01
2017-11-04T05:06:49.621Z,1007.96
2017-11-04T05:08:02.499Z,1007.97
2017-11-04T05:09:14.792Z,1007.99
2017-11-04T05:10:27.404Z,1007.98
2017-11-04T05:11:39.687Z,1007.91
2017-11-04T05:12:51.958Z,1007.91
2017-11-04T05:14:04.228Z,1007.92
2017-11-04T05:15:16.518Z,1007.89
2017-11-04T05:16:28.806Z,1007.89
2017-11-04T05:17:41.086Z,1007.9
2017-11-04T05:18:53.681Z,1007.86
2017-11-04T05:20:05.648Z,1007.89
2017-11-04T05:21:18.249Z,1007.88
2017-11-04T05:22:30.551Z,1007.84
2017-11-04T05:23:43.156Z,1007.87
2017-11-04T05:24:55.426Z,1007.88
2017-11-04T05:26:08.023Z,1007.85
2017-11-04T05:27:20.643Z,1007.86
2017-11-04T05:28:33.249Z,1007.86
2017-11-04T05:29:46.143Z,1007.84
2017-11-04T05:30:58.459Z,1007.9
2017-11-04T05:32:10.735Z,1007.93
2017-11-04T05:33:23.374Z,1007.86
2017-11-04T05:34:35.691Z,1007.89
2017-11-04T05:35:48.299Z,1007.9
2017-11-04T05:37:00.611Z,1007.94
2017-11-04T05:38:13.187Z,1007.89
2017-11-04T05:39:25.774Z,1007.9
2017-11-04T05:40:38.072Z,1007.89
2017-11-04T05:41:50.699Z,1007.88
2017-11-04T05:43:03.298Z,1007.91
2017-11-04T05:44:15.567Z,1007.91
2017-11-04T05:45:28.193Z,1007.91
2017-11-04T05:46:40.493Z,1007.9
2017-11-04T05:47:53.122Z,1007.9
2017-11-04T05:49:05.426Z,1007.92
2017-11-04T05:50:17.721Z,1007.9
2017-11-04T05:51:30.035Z,1007.92
2017-11-04T05:52:42.309Z,1007.9
2017-11-04T05:53:54.901Z,1007.9
2017-11-04T05:55:06.525Z,1007.95
2017-11-04T05:56:18.816Z,1007.91
2017-11-04T05:57:31.446Z,1007.93
2017-11-04T05:58:43.757Z,1007.89
2017-11-04T05:59:56.358Z,1007.93
2017-11-04T06:01:07.996Z,1007.93
2017-11-04T06:02:20.854Z,1007.96
2017-11-04T06:03:32.498Z,1007.95
2017-11-04T06:04:44.769Z,1007.92
2017-11-04T06:05:57.056Z,1007.95
2017-11-04T06:07:09.331Z,1007.9
2017-11-04T06:08:21.606Z,1007.91
2017-11-04T06:09:33.893Z,1007.93
2017-11-04T06:10:46.527Z,1007.9
2017-11-04T06:11:58.817Z,1007.92
2017-11-04T06:13:10.791Z,1007.94
2017-11-04T06:14:23.109Z,1007.91
2017-11-04T06:15:35.405Z,1007.92
2017-11-04T06:16:47.714Z,1007.92
2017-11-04T06:17:59.995Z,1007.85
2017-11-04T06:19:12.587Z,1007.92
2017-11-04T06:20:25.229Z,1007.91
2017-11-04T06:21:37.533Z,1007.87
2017-11-04T06:22:50.140Z,1007.87
2017-11-04T06:24:02.988Z,1007.88
2017-11-04T06:25:14.966Z,1007.84
2017-11-04T06:26:27.240Z,1007.86
2017-11-04T06:27:39.858Z,1007.82
2017-11-04T06:28:52.132Z,1007.86
2017-11-04T06:30:04.749Z,1007.86
2017-11-04T06:31:17.021Z,1007.86
2017-11-04T06:32:29.333Z,1007.86
2017-11-04T06:33:41.941Z,1007.85
2017-11-04T06:34:54.576Z,1007.81
2017-11-04T06:36:06.874Z,1007.85
2017-11-04T06:37:18.826Z,1007.83
2017-11-04T06:38:30.798Z,1007.85
2017-11-04T06:39:43.390Z,1007.84
2017-11-04T06:40:55.676Z,1007.85
2017-11-04T06:42:08.283Z,1007.84
2017-11-04T06:43:20.574Z,1007.83
2017-11-04T06:44:32.867Z,1007.82
2017-11-04T06:45:44.860Z,1007.79
2017-11-04T06:46:57.163Z,1007.81
2017-11-04T06:48:09.759Z,1007.8
2017-11-04T06:49:21.704Z,1007.79
2017-11-04T06:50:34.306Z,1007.79
2017-11-04T06:51:46.274Z,1007.77
2017-11-04T06:52:58.920Z,1007.79
2017-11-04T06:54:11.191Z,1007.76
2017-11-04T06:55:23.161Z,1007.76
2017-11-04T06:56:35.754Z,1007.79
2017-11-04T06:57:48.369Z,1007.78
2017-11-04T06:59:00.995Z,1007.8
2017-11-04T07:00:13.591Z,1007.77
2017-11-04T07:01:25.886Z,1007.8
2017-11-04T07:02:38.506Z,1007.76
2017-11-04T07:03:51.120Z,1007.76
2017-11-04T07:05:03.427Z,1007.74
2017-11-04T07:06:16.046Z,1007.7
2017-11-04T07:07:28.892Z,1007.73
2017-11-04T07:08:40.881Z,1007.78
2017-11-04T07:09:53.479Z,1007.7
2017-11-04T07:11:05.756Z,1007.71
2017-11-04T07:12:18.347Z,1007.72
2017-11-04T07:13:30.292Z,1007.67
2017-11-04T07:14:42.931Z,1007.68
2017-11-04T07:15:55.538Z,1007.71
2017-11-04T07:17:08.129Z,1007.7
2017-11-04T07:18:20.671Z,1007.72
2017-11-04T07:19:33.300Z,1007.74
2017-11-04T07:20:45.924Z,1007.73
2017-11-04T07:21:58.540Z,1007.72
2017-11-04T07:23:10.511Z,1007.71
2017-11-04T07:24:23.106Z,1007.7
2017-11-04T07:25:35.102Z,1007.72
2017-11-04T07:26:47.719Z,1007.67
2017-11-04T07:28:00.336Z,1007.68
2017-11-04T07:29:12.320Z,1007.68
2017-11-04T07:30:24.626Z,1007.69
2017-11-04T07:31:36.580Z,1007.61
2017-11-04T07:32:49.204Z,1007.62
2017-11-04T07:34:01.798Z,1007.58
2017-11-04T07:35:13.766Z,1007.63
2017-11-04T07:36:26.034Z,1007.61
2017-11-04T07:37:38.351Z,1007.65
2017-11-04T07:38:50.658Z,1007.63
2017-11-04T07:40:03.275Z,1007.59
2017-11-04T07:41:15.875Z,1007.53
2017-11-04T07:42:28.462Z,1007.58
2017-11-04T07:43:41.058Z,1007.57
2017-11-04T07:44:53.658Z,1007.58
2017-11-04T07:46:05.602Z,1007.57
2017-11-04T07:47:17.253Z,1007.59
2017-11-04T07:48:29.558Z,1007.6
2017-11-04T07:49:41.814Z,1007.63
2017-11-04T07:50:54.702Z,1007.59
2017-11-04T07:52:06.955Z,1007.6
2017-11-04T07:53:18.596Z,1007.55
2017-11-04T07:54:30.560Z,1007.61
2017-11-04T07:55:42.518Z,1007.55
2017-11-04T07:56:55.137Z,1007.57
2017-11-04T07:58:07.734Z,1007.46
2017-11-04T07:59:19.706Z,1007.49
2017-11-04T08:00:32.331Z,1007.46
2017-11-04T08:01:45.261Z,1007.46
2017-11-04T08:02:57.888Z,1007.47
2017-11-04T08:04:09.866Z,1007.47
2017-11-04T08:05:22.497Z,1007.47
2017-11-04T08:06:35.100Z,1007.5
2017-11-04T08:07:47.391Z,1007.55
2017-11-04T08:08:59.364Z,1007.53
2017-11-04T08:10:11.971Z,1007.55
2017-11-04T08:11:24.261Z,1007.63
2017-11-04T08:12:36.883Z,1007.61
2017-11-04T08:13:49.476Z,1007.61
2017-11-04T08:15:02.090Z,1007.61
2017-11-04T08:16:13.082Z,1007.56
2017-11-04T08:17:25.712Z,1007.52
2017-11-04T08:18:37.681Z,1007.48
2017-11-04T08:19:49.956Z,1007.49
2017-11-04T08:21:02.590Z,1007.49
2017-11-04T08:22:15.186Z,1007.47
2017-11-04T08:23:27.790Z,1007.45
2017-11-04T08:24:40.077Z,1007.45
2017-11-04T08:25:52.698Z,1007.46
2017-11-04T08:27:05.327Z,1007.5
2017-11-04T08:28:17.596Z,1007.52
2017-11-04T08:29:30.214Z,1007.48
2017-11-04T08:30:42.491Z,1007.48
2017-11-04T08:31:55.106Z,1007.55
2017-11-04T08:33:06.759Z,1007.54
2017-11-04T08:34:19.032Z,1007.55
2017-11-04T08:35:31.649Z,1007.55
2017-11-04T08:36:44.260Z,1007.52
2017-11-04T08:37:56.537Z,1007.47
2017-11-04T08:39:08.783Z,1007.5
2017-11-04T08:40:21.338Z,1007.51
2017-11-04T08:41:33.946Z,1007.48
2017-11-04T08:42:45.915Z,1007.44
2017-11-04T08:43:58.210Z,1007.38
2017-11-04T08:45:10.840Z,1007.4
2017-11-04T08:46:23.462Z,1007.4
2017-11-04T08:47:35.751Z,1007.43
2017-11-04T08:48:48.052Z,1007.36
2017-11-04T08:50:00.350Z,1007.36
2017-11-04T08:51:13.004Z,1007.35
2017-11-04T08:52:25.639Z,1007.31
2017-11-04T08:53:37.906Z,1007.33
2017-11-04T08:54:50.476Z,1007.31
2017-11-04T08:56:02.749Z,1007.31
2017-11-04T08:57:15.346Z,1007.32
2017-11-04T08:58:27.969Z,1007.28
2017-11-04T08:59:39.938Z,1007.25
2017-11-04T09:00:52.561Z,1007.23
2017-11-04T09:02:05.446Z,1007.18
2017-11-04T09:03:17.738Z,1007.22
2017-11-04T09:04:30.345Z,1007.22
2017-11-04T09:05:42.615Z,1007.2
2017-11-04T09:06:55.190Z,1007.25
2017-11-04T09:08:07.834Z,1007.26
2017-11-04T09:09:20.152Z,1007.28
2017-11-04T09:10:32.773Z,1007.25
2017-11-04T09:11:45.367Z,1007.23
2017-11-04T09:12:57.635Z,1007.22
2017-11-04T09:14:10.274Z,1007.26
2017-11-04T09:15:22.866Z,1007.25
2017-11-04T09:16:35.151Z,1007.22
2017-11-04T09:17:47.447Z,1007.22
2017-11-04T09:19:00.035Z,1007.2
2017-11-04T09:20:11.994Z,1007.24
2017-11-04T09:21:24.282Z,1007.2
2017-11-04T09:22:36.894Z,1007.19
2017-11-04T09:23:49.528Z,1007.25
2017-11-04T09:25:01.826Z,1007.22
2017-11-04T09:26:13.467Z,1007.21
2017-11-04T09:27:25.429Z,1007.18
2017-11-04T09:28:37.749Z,1007.22
2017-11-04T09:29:50.354Z,1007.25
2017-11-04T09:31:02.977Z,1007.13
2017-11-04T09:32:15.620Z,1007.17
2017-11-04T09:33:27.911Z,1007.18
2017-11-04T09:34:40.541Z,1007.18
2017-11-04T09:35:53.149Z,1007.15
2017-11-04T09:37:05.444Z,1007.12
2017-11-04T09:38:18.065Z,1007.13
2017-11-04T09:39:30.982Z,1007.13
2017-11-04T09:40:43.590Z,1007.07
2017-11-04T09:41:56.174Z,1007.1
2017-11-04T09:43:08.798Z,1007.06
2017-11-04T09:44:21.081Z,1007.06
2017-11-04T09:45:33.618Z,1007.04
2017-11-04T09:46:46.216Z,1007
2017-11-04T09:47:58.855Z,1007.02
2017-11-04T09:49:11.135Z,1006.98
2017-11-04T09:50:23.729Z,1006.98
2017-11-04T09:51:36.327Z,1007.02
2017-11-04T09:52:48.916Z,1006.93
2017-11-04T09:54:01.216Z,1006.94
2017-11-04T09:55:13.502Z,1006.97
2017-11-04T09:56:25.782Z,1006.92
2017-11-04T09:57:37.745Z,1006.89
2017-11-04T09:58:49.698Z,1006.82
2017-11-04T10:00:02.320Z,1006.86
2017-11-04T10:01:14.961Z,1006.8
2017-11-04T10:02:27.576Z,1006.79
2017-11-04T10:03:40.210Z,1006.81
2017-11-04T10:04:52.823Z,1006.84
2017-11-04T10:06:05.147Z,1006.79
2017-11-04T10:07:17.766Z,1006.81
2017-11-04T10:08:30.028Z,1006.79
2017-11-04T10:09:42.648Z,1006.73
2017-11-04T10:10:54.931Z,1006.73
2017-11-04T10:12:06.898Z,1006.69
2017-11-04T10:13:19.174Z,1006.73
2017-11-04T10:14:31.789Z,1006.72
2017-11-04T10:15:44.387Z,1006.69
2017-11-04T10:16:56.997Z,1006.73
2017-11-04T10:18:09.608Z,1006.69
2017-11-04T10:19:22.239Z,1006.69
2017-11-04T10:20:34.878Z,1006.61
2017-11-04T10:21:47.495Z,1006.65
2017-11-04T10:23:00.125Z,1006.66
2017-11-04T10:24:12.729Z,1006.63
2017-11-04T10:25:25.025Z,1006.64
2017-11-04T10:26:37.301Z,1006.63
2017-11-04T10:27:49.933Z,1006.59
2017-11-04T10:29:02.232Z,1006.57
2017-11-04T10:30:14.186Z,1006.56
2017-11-04T10:31:26.481Z,1006.52
2017-11-04T10:32:38.775Z,1006.52
2017-11-04T10:33:50.764Z,1006.48
2017-11-04T10:35:03.056Z,1006.46
2017-11-04T10:36:15.687Z,1006.44
2017-11-04T10:37:28.335Z,1006.46
2017-11-04T10:38:40.629Z,1006.41
2017-11-04T10:39:52.909Z,1006.42
2017-11-04T10:41:05.217Z,1006.44
2017-11-04T10:42:17.839Z,1006.45
2017-11-04T10:43:29.815Z,1006.42
2017-11-04T10:44:41.455Z,1006.43
2017-11-04T10:45:54.045Z,1006.42
2017-11-04T10:47:06.325Z,1006.4
2017-11-04T10:48:18.308Z,1006.4
2017-11-04T10:49:30.930Z,1006.42
2017-11-04T10:50:43.257Z,1006.37
2017-11-04T10:51:55.554Z,1006.38
2017-11-04T10:53:08.153Z,1006.33
2017-11-04T10:54:20.773Z,1006.25
2017-11-04T10:55:33.410Z,1006.22
2017-11-04T10:56:46.022Z,1006.26
2017-11-04T10:57:58.652Z,1006.15
2017-11-04T10:59:11.281Z,1006.21
2017-11-04T11:00:23.946Z,1006.15
2017-11-04T11:01:36.264Z,1006.18
2017-11-04T11:02:48.542Z,1006.16
2017-11-04T11:04:00.202Z,1006.14
2017-11-04T11:05:12.481Z,1006.12
2017-11-04T11:06:24.819Z,1006.11
2017-11-04T11:07:36.800Z,1006.13
2017-11-04T11:08:49.420Z,1006.12
2017-11-04T11:10:01.697Z,1006.15
2017-11-04T11:11:14.334Z,1006.11
2017-11-04T11:12:26.625Z,1006.12
2017-11-04T11:13:39.229Z,1006.15
2017-11-04T11:14:51.871Z,1006.07
2017-11-04T11:16:03.844Z,1006.13
2017-11-04T11:17:16.441Z,1006.14
2017-11-04T11:18:28.436Z,1006.13
2017-11-04T11:19:41.057Z,1006.11
2017-11-04T11:20:53.694Z,1006.08
2017-11-04T11:22:06.324Z,1006.09
2017-11-04T11:23:18.958Z,1006.04
2017-11-04T11:24:30.965Z,1006.02
2017-11-04T11:25:43.559Z,1006.01
2017-11-04T11:26:56.155Z,1005.99
2017-11-04T11:28:08.447Z,1005.91
2017-11-04T11:29:20.744Z,1005.92
2017-11-04T11:30:33.389Z,1005.87
2017-11-04T11:31:45.987Z,1005.88
2017-11-04T11:32:58.257Z,1005.84
2017-11-04T11:34:10.857Z,1005.81
2017-11-04T11:35:23.450Z,1005.79
2017-11-04T11:36:35.759Z,1005.78
2017-11-04T11:37:48.059Z,1005.82
2017-11-04T11:39:00.932Z,1005.81
2017-11-04T11:40:13.557Z,1005.81
2017-11-04T11:41:26.155Z,1005.77
2017-11-04T11:42:38.465Z,1005.75
2017-11-04T11:43:51.071Z,1005.72
2017-11-04T11:45:03.661Z,1005.68
2017-11-04T11:46:16.274Z,1005.67
2017-11-04T11:47:28.884Z,1005.66
2017-11-04T11:48:41.530Z,1005.6
2017-11-04T11:49:54.194Z,1005.6
2017-11-04T11:51:06.506Z,1005.61
2017-11-04T11:52:19.118Z,1005.57
2017-11-04T11:53:31.406Z,1005.58
2017-11-04T11:54:43.715Z,1005.58
2017-11-04T11:55:56.356Z,1005.56
2017-11-04T11:57:08.977Z,1005.52
2017-11-04T11:58:21.646Z,1005.55
2017-11-04T11:59:34.237Z,1005.51
2017-11-04T12:00:47.097Z,1005.51
2017-11-04T12:01:59.381Z,1005.49
2017-11-04T12:03:11.044Z,1005.47
2017-11-04T12:04:23.684Z,1005.44
2017-11-04T12:05:35.654Z,1005.45
2017-11-04T12:06:47.953Z,1005.39
2017-11-04T12:08:00.246Z,1005.4
2017-11-04T12:09:12.870Z,1005.43
2017-11-04T12:10:25.150Z,1005.4
2017-11-04T12:11:37.744Z,1005.43
2017-11-04T12:12:50.382Z,1005.4
2017-11-04T12:14:02.336Z,1005.38
2017-11-04T12:15:14.980Z,1005.36
2017-11-04T12:16:26.618Z,1005.39
2017-11-04T12:17:38.910Z,1005.29
2017-11-04T12:18:51.520Z,1005.33
2017-11-04T12:20:04.130Z,1005.33
2017-11-04T12:21:16.080Z,1005.24
2017-11-04T12:22:28.681Z,1005.22
2017-11-04T12:23:40.988Z,1005.2
2017-11-04T12:24:53.271Z,1005.14
2017-11-04T12:26:05.233Z,1005.14
2017-11-04T12:27:17.491Z,1005.13
2017-11-04T12:28:29.791Z,1005.09
2017-11-04T12:29:41.758Z,1005.05
2017-11-04T12:30:54.380Z,1005.05
2017-11-04T12:32:06.686Z,1005.07
2017-11-04T12:33:18.987Z,1005.03
2017-11-04T12:34:31.608Z,1005.01
2017-11-04T12:35:44.261Z,1005.01
2017-11-04T12:36:56.545Z,1004.98
2017-11-04T12:38:08.860Z,1004.99
2017-11-04T12:39:21.468Z,1004.98
2017-11-04T12:40:34.089Z,1005
2017-11-04T12:41:46.718Z,1004.94
2017-11-04T12:42:59.359Z,1004.94
2017-11-04T12:44:12.007Z,1004.9
2017-11-04T12:45:24.648Z,1004.89
2017-11-04T12:46:36.966Z,1004.86
2017-11-04T12:47:49.290Z,1004.9
2017-11-04T12:49:01.256Z,1004.88
2017-11-04T12:50:13.532Z,1004.85
2017-11-04T12:51:26.130Z,1004.82
2017-11-04T12:52:38.750Z,1004.75
2017-11-04T12:53:51.367Z,1004.73
2017-11-04T12:55:03.976Z,1004.75
2017-11-04T12:56:15.946Z,1004.69
2017-11-04T12:57:28.267Z,1004.64
2017-11-04T12:58:40.549Z,1004.6
2017-11-04T12:59:52.844Z,1004.64
2017-11-04T13:01:05.111Z,1004.61
2017-11-04T13:02:17.411Z,1004.61
2017-11-04T13:03:30.032Z,1004.55
2017-11-04T13:04:42.634Z,1004.52
2017-11-04T13:05:54.574Z,1004.55
2017-11-04T13:07:06.844Z,1004.57
2017-11-04T13:08:19.442Z,1004.5
2017-11-04T13:09:31.748Z,1004.46
2017-11-04T13:10:44.027Z,1004.52
2017-11-04T13:11:56.599Z,1004.48
2017-11-04T13:13:08.875Z,1004.49
2017-11-04T13:14:21.188Z,1004.48
2017-11-04T13:15:33.791Z,1004.48
2017-11-04T13:16:46.408Z,1004.52
2017-11-04T13:17:59.040Z,1004.49
2017-11-04T13:19:11.645Z,1004.46
2017-11-04T13:20:24.285Z,1004.48
2017-11-04T13:21:36.556Z,1004.49
2017-11-04T13:22:49.462Z,1004.57
2017-11-04T13:24:01.754Z,1004.58
2017-11-04T13:25:13.103Z,1004.59
2017-11-04T13:26:25.044Z,1004.52
2017-11-04T13:27:37.319Z,1004.51
2017-11-04T13:28:49.964Z,1004.48
2017-11-04T13:30:02.261Z,1004.47
2017-11-04T13:31:14.599Z,1004.42
2017-11-04T13:32:26.918Z,1004.47
2017-11-04T13:33:39.537Z,1004.42
2017-11-04T13:34:51.817Z,1004.4
2017-11-04T13:36:03.456Z,1004.4
2017-11-04T13:37:16.056Z,1004.45
2017-11-04T13:38:28.318Z,1004.45
2017-11-04T13:39:40.906Z,1004.45
2017-11-04T13:40:52.887Z,1004.43
2017-11-04T13:42:05.488Z,1004.44
2017-11-04T13:43:17.787Z,1004.39
2017-11-04T13:44:30.454Z,1004.39
2017-11-04T13:45:43.078Z,1004.4
2017-11-04T13:46:55.403Z,1004.38
2017-11-04T13:48:08.036Z,1004.4
2017-11-04T13:49:20.645Z,1004.38
2017-11-04T13:50:32.950Z,1004.39
2017-11-04T13:51:45.557Z,1004.39
2017-11-04T13:52:58.153Z,1004.38
2017-11-04T13:54:10.797Z,1004.36
2017-11-04T13:55:23.436Z,1004.31
2017-11-04T13:56:36.039Z,1004.33
2017-11-04T13:57:48.056Z,1004.33
2017-11-04T13:59:00.308Z,1004.32
2017-11-04T14:00:12.541Z,1004.35
2017-11-04T14:01:24.869Z,1004.33
2017-11-04T14:02:37.514Z,1004.31
2017-11-04T14:03:49.806Z,1004.28
2017-11-04T14:05:02.065Z,1004.25
2017-11-04T14:06:14.050Z,1004.26
2017-11-04T14:07:26.330Z,1004.27
2017-11-04T14:08:38.963Z,1004.23
2017-11-04T14:09:51.255Z,1004.23
2017-11-04T14:11:03.551Z,1004.24
2017-11-04T14:12:16.160Z,1004.18
2017-11-04T14:13:28.776Z,1004.22
2017-11-04T14:14:41.366Z,1004.22
2017-11-04T14:15:53.975Z,1004.19
2017-11-04T14:17:06.567Z,1004.18
2017-11-04T14:18:19.168Z,1004.22
2017-11-04T14:19:31.133Z,1004.19
2017-11-04T14:20:43.449Z,1004.24
2017-11-04T14:21:56.298Z,1004.22
2017-11-04T14:23:07.960Z,1004.17
2017-11-04T14:24:20.261Z,1004.19
2017-11-04T14:25:32.859Z,1004.11
2017-11-04T14:26:45.131Z,1004.12
2017-11-04T14:27:57.729Z,1004.05
2017-11-04T14:29:10.019Z,1004.01
2017-11-04T14:30:21.990Z,1004.03
2017-11-04T14:31:33.995Z,1004
2017-11-04T14:32:46.599Z,1004.02
2017-11-04T14:33:57.929Z,1004.07
2017-11-04T14:35:10.239Z,1004.05
2017-11-04T14:36:22.222Z,1004.08
2017-11-04T14:37:34.517Z,1004.05
2017-11-04T14:38:47.157Z,1004.06